Time;durP1;ratioP1;P1;durP2;ratioP2;P2;SDS_P1;SDS_P2;PMS_P1;PMS_P2;Temp;Humidity;BMP_temperature;BMP_pressure;BME280_temperature;BME280_humidity;BME280_pressure;Samples;Min_cycle;Max_cycle;Signal;HPM_P1;HPM_P2
2022/12/27 00:02:17;;;;;;;1.70;0.63;;;;;;;8.38;70.88;97384.00;4917121;29;20160;-78
2022/12/27 00:04:44;;;;;;;6.47;1.00;;;;;;;8.38;71.32;97386.63;4923174;29;20149;-79
2022/12/27 00:07:12;;;;;;;1.63;0.60;;;;;;;8.40;72.04;97382.09;4936929;29;20048;-79
2022/12/27 00:09:40;;;;;;;3.20;1.05;;;;;;;8.41;71.09;97396.72;4936016;29;20056;-78
2022/12/27 00:12:08;;;;;;;1.80;0.73;;;;;;;8.40;70.47;97405.47;4921740;29;20478;-78
2022/12/27 00:14:35;;;;;;;1.90;0.60;;;;;;;8.37;69.95;97409.16;4916653;29;20434;-79
2022/12/27 00:17:04;;;;;;;2.63;0.80;;;;;;;8.34;70.03;97413.88;4917083;29;20430;-78
2022/12/27 00:19:32;;;;;;;0.80;0.80;;;;;;;8.32;70.16;97414.00;4916900;29;20071;-79
2022/12/27 00:21:59;;;;;;;2.63;1.23;;;;;;;8.33;70.25;97414.81;4916699;29;20058;-78
2022/12/27 00:24:27;;;;;;;1.83;0.90;;;;;;;8.34;71.41;97414.69;4917121;29;20047;-79
2022/12/27 00:26:54;;;;;;;1.75;0.85;;;;;;;8.35;70.43;97426.72;4916645;29;20059;-78
2022/12/27 00:29:22;;;;;;;1.67;1.00;;;;;;;8.34;70.70;97419.06;4916196;29;20666;-78
2022/12/27 00:31:49;;;;;;;0.80;0.60;;;;;;;8.35;71.35;97418.94;4916710;29;20052;-78
2022/12/27 00:34:18;;;;;;;2.40;1.27;;;;;;;8.36;70.80;97424.94;4916630;29;20063;-79
2022/12/27 00:36:46;;;;;;;1.92;1.73;;;;;;;8.33;70.03;97433.00;4916435;29;20052;-78
2022/12/27 00:39:14;;;;;;;2.20;0.90;;;;;;;8.28;70.16;97437.84;4915968;29;20052;-79
2022/12/27 00:41:42;;;;;;;2.25;1.15;;;;;;;8.27;69.69;97442.22;4916574;29;20502;-78
2022/12/27 00:44:09;;;;;;;1.45;1.00;;;;;;;8.27;71.46;97441.41;4916678;29;20059;-78
2022/12/27 00:46:37;;;;;;;1.65;1.10;;;;;;;8.27;70.13;97449.22;4910409;29;20066;-78
2022/12/27 00:49:05;;;;;;;2.45;1.35;;;;;;;8.22;69.99;97445.28;4938120;29;20039;-78
2022/12/27 00:51:33;;;;;;;1.63;1.38;;;;;;;8.19;70.03;97449.94;4936515;29;20052;-79
2022/12/27 00:54:01;;;;;;;2.33;1.35;;;;;;;8.18;70.57;97456.09;4917757;29;20679;-78
2022/12/27 00:56:30;;;;;;;2.55;1.10;;;;;;;8.16;70.15;97461.44;4916180;29;20052;-78
2022/12/27 00:58:59;;;;;;;2.35;0.98;;;;;;;8.13;68.91;97468.69;4916460;29;20063;-78
2022/12/27 01:01:31;;;;;;;2.40;0.88;;;;;;;8.07;68.82;97483.09;4916705;29;20052;-78
2022/12/27 01:03:58;;;;;;;1.25;0.80;;;;;;;8.04;69.47;97478.19;4916791;29;20052;-78
2022/12/27 01:06:28;;;;;;;0.73;0.70;;;;;;;7.97;68.49;97477.94;4917221;29;20513;-78
2022/12/27 01:08:57;;;;;;;1.63;0.60;;;;;;;7.91;68.79;97488.09;4920829;29;20055;-78
2022/12/27 01:11:27;;;;;;;0.88;0.65;;;;;;;7.89;68.41;97496.00;4921266;29;20052;-78
2022/12/27 01:13:55;;;;;;;1.48;0.40;;;;;;;7.81;67.69;97499.34;4920904;29;20481;-79
2022/12/27 01:16:24;;;;;;;0.57;0.57;;;;;;;7.77;67.12;97497.16;4966787;23;20502;-86
2022/12/27 01:18:52;;;;;;;2.50;0.90;;;;;;;7.71;67.65;97514.13;4962858;29;20313;-88
2022/12/27 01:21:21;;;;;;;0.90;0.63;;;;;;;7.67;66.91;97522.34;4962993;29;20063;-87
2022/12/27 01:23:49;;;;;;;1.90;0.80;;;;;;;7.64;67.42;97523.44;4963449;29;20425;-82
2022/12/27 01:26:21;;;;;;;1.33;0.65;;;;;;;7.62;67.37;97530.56;4951429;29;20111;-87
2022/12/27 01:28:49;;;;;;;1.55;0.75;;;;;;;7.57;66.98;97532.75;4943601;29;20056;-86
2022/12/27 01:31:18;;;;;;;0.88;0.60;;;;;;;7.52;66.79;97545.31;4945049;29;20087;-85
2022/12/27 01:33:47;;;;;;;2.15;0.70;;;;;;;7.46;67.16;97551.91;4943966;29;20055;-83
2022/12/27 01:36:16;;;;;;;0.68;0.45;;;;;;;7.43;66.14;97557.34;4944166;29;20119;-80
2022/12/27 01:38:46;;;;;;;2.88;0.60;;;;;;;7.39;66.86;97563.78;4943429;29;20410;-85
2022/12/27 01:44:35;;;;;;;1.35;0.55;;;;;;;7.30;66.50;97585.38;4943980;29;20415;-84
2022/12/27 01:47:11;;;;;;;1.08;0.47;;;;;;;7.28;65.73;97585.53;4943295;29;20052;-82
2022/12/27 01:49:40;;;;;;;2.05;0.63;;;;;;;7.24;66.67;97594.53;4943295;29;20079;-82
2022/12/27 01:52:10;;;;;;;1.48;1.23;;;;;;;7.19;66.31;97594.94;4953278;29;20071;-84
2022/12/27 01:54:38;;;;;;;2.58;0.68;;;;;;;7.15;66.69;97588.38;4941957;29;20135;-88
2022/12/27 01:57:06;;;;;;;2.55;0.65;;;;;;;7.12;65.43;97595.63;4942303;29;20498;-87
2022/12/27 01:59:34;;;;;;;1.75;0.70;;;;;;;7.06;65.08;97598.75;4943200;29;20044;-85
2022/12/27 02:02:04;;;;;;;1.02;0.40;;;;;;;7.03;64.31;97601.63;4943289;29;20441;-86
2022/12/27 02:04:33;;;;;;;2.50;1.00;;;;;;;6.99;65.14;97599.28;4945280;29;20059;-82
2022/12/27 02:07:01;;;;;;;6.78;0.40;;;;;;;6.95;63.33;97616.09;4944864;29;20051;-86
2022/12/27 02:09:35;;;;;;;1.77;0.52;;;;;;;6.90;64.31;97607.88;4944863;29;20332;-85
2022/12/27 02:12:06;;;;;;;1.08;0.57;;;;;;;6.88;63.67;97616.75;4944763;29;20419;-78
2022/12/27 02:14:42;;;;;;;2.83;0.43;;;;;;;6.84;64.54;97616.19;4944346;29;20051;-80
2022/12/27 02:17:14;;;;;;;1.70;0.73;;;;;;;6.81;62.52;97626.81;4944243;29;20449;-82
2022/12/27 02:19:49;;;;;;;0.63;0.50;;;;;;;6.77;64.69;97633.22;4943122;29;20058;-86
2022/12/27 02:25:55;;;;;;;0.57;0.57;;;;;;;6.66;64.01;97635.94;4943853;29;20540;-82
2022/12/27 02:28:40;;;;;;;1.92;0.40;;;;;;;6.65;64.47;97639.44;4943429;29;20051;-79
2022/12/27 02:31:14;;;;;;;2.30;0.52;;;;;;;6.63;63.90;97644.78;4943679;29;20055;-85
2022/12/27 02:33:46;;;;;;;2.40;0.50;;;;;;;6.63;64.66;97656.94;4943758;29;20506;-79
2022/12/27 02:36:19;;;;;;;2.77;1.07;;;;;;;6.64;65.42;97661.16;4943547;29;20119;-84
2022/12/27 02:38:51;;;;;;;0.40;0.30;;;;;;;6.62;64.12;97650.09;4942264;29;20047;-79
2022/12/27 02:58:59;;;;;;;2.50;0.35;;;;;;;6.54;66.79;97674.09;4947133;29;20052;-88
2022/12/27 03:04:45;;;;;;;1.10;0.63;;;;;;;6.52;67.21;97670.81;4931164;29;20062;-84
2022/12/27 03:07:25;;;;;;;2.70;0.63;;;;;;;6.48;65.75;97674.59;4946858;29;20055;-84
2022/12/27 03:15:57;;;;;;;3.38;0.75;;;;;;;6.46;65.91;97669.53;4946519;29;20501;-80
2022/12/27 03:18:35;;;;;;;1.88;0.47;;;;;;;6.47;67.83;97672.94;4946642;29;20059;-84
2022/12/27 03:26:46;;;;;;;1.13;0.40;;;;;;;6.40;63.52;97688.19;4948191;29;20528;-83
2022/12/27 03:34:58;;;;;;;1.35;0.60;;;;;;;6.35;65.14;97685.19;4946350;29;20063;-80
2022/12/27 03:40:20;;;;;;;2.42;0.70;;;;;;;6.38;67.93;97690.09;4945568;29;20054;-88
2022/12/27 03:48:51;;;;;;;2.17;0.85;;;;;;;6.36;67.04;97692.84;4944814;29;20047;-84
2022/12/27 03:51:23;;;;;;;1.65;0.57;;;;;;;6.36;68.08;97697.19;4944732;29;20426;-84
2022/12/27 03:53:56;;;;;;;3.50;0.43;;;;;;;6.35;68.36;97695.53;4944359;29;20079;-79
2022/12/27 03:56:23;;;;;;;;;;;;;;;6.38;68.43;97692.69;4946676;29;20593;-87
2022/12/27 03:58:52;;;;;;;1.45;0.38;;;;;;;6.34;67.54;97696.47;4946680;29;19930;-87
2022/12/27 04:01:20;;;;;;;1.95;0.63;;;;;;;6.29;66.07;97699.47;4947691;29;20051;-83
2022/12/27 04:03:48;;;;;;;4.65;1.00;;;;;;;6.28;68.24;97699.59;4946822;29;20062;-88
2022/12/27 04:06:15;;;;;;;2.35;0.80;;;;;;;6.29;69.28;97696.88;4946972;29;20047;-87
2022/12/27 04:36:19;;;;;;;2.03;0.60;;;;;;;6.40;70.12;97725.28;4943718;29;20510;-79
2022/12/27 04:38:47;;;;;;;1.42;0.70;;;;;;;6.42;69.79;97721.78;4942660;29;20533;-85
2022/12/27 04:55:14;;;;;;;1.80;0.52;;;;;;;6.45;69.10;97717.16;4946208;29;20060;-86
2022/12/27 04:57:42;;;;;;;1.77;0.77;;;;;;;6.45;69.58;97724.94;4946942;29;20052;-86
2022/12/27 05:02:58;;;;;;;4.32;0.60;;;;;;;6.44;69.13;97719.88;4945329;29;20055;-83
2022/12/27 05:05:26;;;;;;;1.35;0.88;;;;;;;6.43;69.38;97729.44;4944933;29;20067;-84
2022/12/27 05:16:11;;;;;;;2.05;0.93;;;;;;;6.41;69.81;97733.91;4944410;29;20055;-82
2022/12/27 05:18:38;;;;;;;1.05;0.60;;;;;;;6.39;69.18;97733.22;4943393;29;20107;-81
2022/12/27 05:21:07;;;;;;;1.83;0.50;;;;;;;6.38;69.46;97737.59;4943286;29;20052;-81
2022/12/27 05:26:21;;;;;;;1.38;0.60;;;;;;;6.37;68.17;97740.31;4946248;29;20052;-85
2022/12/27 05:28:51;;;;;;;1.33;0.73;;;;;;;6.37;67.27;97735.13;4945460;29;20055;-85
2022/12/27 05:31:19;;;;;;;3.20;0.73;;;;;;;6.36;66.79;97738.63;4945684;29;20054;-82
2022/12/27 05:33:47;;;;;;;2.05;0.60;;;;;;;6.34;67.99;97743.13;4945399;29;20048;-83
2022/12/27 05:36:15;;;;;;;5.57;0.98;;;;;;;6.35;68.25;97737.81;4945503;29;20426;-85
2022/12/27 05:38:42;;;;;;;4.68;0.70;;;;;;;6.35;68.36;97737.00;4945583;29;20062;-85
2022/12/27 05:41:10;;;;;;;3.13;1.23;;;;;;;6.34;68.69;97740.53;4945384;29;20474;-82
2022/12/27 05:43:38;;;;;;;0.80;0.47;;;;;;;6.32;68.99;97747.63;4944702;29;20055;-85
2022/12/27 05:46:09;;;;;;;2.95;0.75;;;;;;;6.31;68.10;97751.97;4944399;29;20055;-84
2022/12/27 05:48:37;;;;;;;3.22;0.50;;;;;;;6.33;68.72;97755.28;4943905;29;20055;-83
2022/12/27 05:51:05;;;;;;;0.82;0.65;;;;;;;6.34;68.17;97753.50;4944463;29;20150;-86
2022/12/27 05:53:33;;;;;;;2.20;0.80;;;;;;;6.34;68.10;97756.09;4945936;29;20044;-84
2022/12/27 05:56:00;;;;;;;2.15;0.52;;;;;;;6.34;67.80;97754.34;4949397;29;20124;-82
2022/12/27 05:58:28;;;;;;;2.60;0.65;;;;;;;6.36;68.60;97749.00;4949201;29;20051;-86
2022/12/27 06:00:56;;;;;;;0.60;0.45;;;;;;;6.36;68.95;97751.59;4948904;29;20052;-85
2022/12/27 06:03:25;;;;;;;2.55;0.70;;;;;;;6.37;69.46;97750.66;4948761;29;20056;-84
2022/12/27 06:05:59;;;;;;;1.40;0.73;;;;;;;6.35;65.52;97757.75;4946839;29;20047;-83
2022/12/27 06:08:27;;;;;;;3.88;0.40;;;;;;;6.31;68.04;97764.13;4946477;29;20048;-83
2022/12/27 06:11:03;;;;;;;1.52;1.25;;;;;;;6.31;67.49;97761.53;4946277;29;20524;-79
2022/12/27 06:13:31;;;;;;;7.25;4.47;;;;;;;6.29;68.50;97756.47;4945679;29;20052;-84
2022/12/27 06:16:00;;;;;;;4.53;1.58;;;;;;;6.29;67.08;97761.66;4945127;29;20050;-81
2022/12/27 06:18:32;;;;;;;1.33;0.63;;;;;;;6.30;67.96;97762.50;4944441;29;20055;-80
2022/12/27 06:21:04;;;;;;;0.97;0.60;;;;;;;6.27;65.65;97760.13;4947781;29;20047;-80
2022/12/27 06:23:32;;;;;;;1.00;0.43;;;;;;;6.25;66.71;97762.03;4944399;29;20776;-84
2022/12/27 06:26:04;;;;;;;2.80;0.77;;;;;;;6.18;63.75;97770.31;4943994;29;20055;-80
2022/12/27 06:28:32;;;;;;;1.48;0.80;;;;;;;6.16;66.05;97768.78;4943642;29;20068;-80
2022/12/27 06:30:59;;;;;;;1.92;0.68;;;;;;;6.16;66.96;97768.78;4943966;29;20051;-82
2022/12/27 06:33:27;;;;;;;2.00;0.68;;;;;;;6.17;67.53;97775.63;4943399;29;20075;-80
2022/12/27 06:35:56;;;;;;;2.85;0.80;;;;;;;6.16;66.84;97763.59;4942932;29;20055;-83
2022/12/27 06:38:24;;;;;;;1.60;0.90;;;;;;;6.18;68.62;97772.06;4945003;29;20055;-88
2022/12/27 06:40:51;;;;;;;2.22;0.80;;;;;;;6.19;68.69;97774.56;4948742;29;20048;-90
2022/12/27 06:43:19;;;;;;;1.70;0.93;;;;;;;6.18;67.91;97779.84;4948307;29;20059;-85
2022/12/27 06:45:55;;;;;;;1.48;0.85;;;;;;;6.19;70.19;97782.31;4947958;29;20071;-87
2022/12/27 06:48:23;;;;;;;1.63;0.68;;;;;;;6.20;68.39;97790.91;4947090;29;20055;-86
2022/12/27 06:50:51;;;;;;;3.10;0.80;;;;;;;6.15;67.70;97783.50;4947873;29;20059;-89
2022/12/27 06:53:20;;;;;;;0.98;0.80;;;;;;;6.14;68.39;97783.63;4948013;29;20056;-86
2022/12/27 06:55:48;;;;;;;2.60;0.60;;;;;;;6.15;68.76;97785.28;4948310;29;20058;-88
2022/12/27 06:58:15;;;;;;;3.05;0.75;;;;;;;6.18;69.46;97780.66;4945386;29;20075;-82
2022/12/27 07:00:43;;;;;;;2.95;0.75;;;;;;;6.18;68.19;97788.44;4946532;29;20048;-89
2022/12/27 07:03:10;;;;;;;3.00;1.38;;;;;;;6.16;66.94;97785.16;4945943;29;20489;-82
2022/12/27 07:05:39;;;;;;;3.30;2.10;;;;;;;6.11;66.12;97779.53;4946164;29;20092;-83
2022/12/27 07:08:06;;;;;;;4.05;2.85;;;;;;;6.06;65.42;97786.84;4944484;29;20052;-82
2022/12/27 07:10:36;;;;;;;6.60;2.20;;;;;;;5.98;64.05;97791.81;4944949;29;20070;-80
2022/12/27 07:13:04;;;;;;;3.30;2.20;;;;;;;5.89;64.91;97787.38;4945037;29;20055;-88
2022/12/27 07:50:31;;;;;;;3.10;1.67;;;;;;;5.28;64.86;97809.34;5762382;23;20103;-78
2022/12/27 07:52:58;;;;;;;3.95;1.70;;;;;;;5.26;64.90;97811.22;4949901;29;20052;-80
2022/12/27 07:55:26;;;;;;;3.20;1.77;;;;;;;5.25;64.78;97809.59;4954862;29;20071;-79
2022/12/27 07:57:54;;;;;;;3.63;1.40;;;;;;;5.25;64.59;97819.13;4947288;29;20051;-79
2022/12/27 08:00:21;;;;;;;4.28;1.92;;;;;;;5.27;65.72;97819.81;4933225;29;20048;-79
2022/12/27 08:02:49;;;;;;;5.35;2.28;;;;;;;5.26;65.24;97821.59;4917631;29;20515;-79
2022/12/27 08:05:16;;;;;;;5.45;1.38;;;;;;;5.24;64.64;97826.06;4918062;29;20056;-78
2022/12/27 08:07:52;;;;;;;2.22;1.30;;;;;;;5.22;64.43;97825.34;4917336;29;20052;-80
2022/12/27 08:10:20;;;;;;;2.67;1.20;;;;;;;5.25;65.96;97821.72;4917370;29;20052;-79
2022/12/27 08:12:47;;;;;;;2.65;1.60;;;;;;;5.28;66.78;97819.69;4917709;29;20049;-78
2022/12/27 08:15:15;;;;;;;2.70;1.05;;;;;;;5.33;65.67;97825.34;4917208;29;20064;-79
2022/12/27 08:17:42;;;;;;;5.15;2.50;;;;;;;5.32;64.56;97821.13;4916862;29;20048;-78
2022/12/27 08:20:13;;;;;;;6.53;3.70;;;;;;;5.32;65.74;97823.69;4916921;29;20430;-79
2022/12/27 08:22:41;;;;;;;7.55;3.17;;;;;;;5.35;65.13;97815.69;4917152;29;20052;-78
2022/12/27 08:25:10;;;;;;;3.72;2.20;;;;;;;5.41;65.85;97829.13;4917294;29;20060;-79
2022/12/27 08:27:38;;;;;;;3.00;2.20;;;;;;;5.45;65.35;97820.19;4917356;29;20130;-78
2022/12/27 08:30:07;;;;;;;2.95;1.67;;;;;;;5.45;64.19;97826.16;4931336;29;20071;-80
2022/12/27 08:32:34;;;;;;;4.28;2.28;;;;;;;5.48;64.98;97827.69;4938137;29;20076;-78
2022/12/27 08:35:02;;;;;;;3.13;1.58;;;;;;;5.53;65.20;97830.72;4934418;29;20466;-80
2022/12/27 08:37:49;;;;;;;2.55;1.60;;;;;;;5.62;66.94;97836.97;4918803;29;20111;-79
2022/12/27 08:40:18;;;;;;;1.50;1.15;;;;;;;5.66;65.31;97839.19;4917402;29;20067;-78
2022/12/27 08:42:46;;;;;;;3.22;1.33;;;;;;;5.74;67.17;97844.59;4917174;29;20135;-80
2022/12/27 08:45:14;;;;;;;2.15;1.25;;;;;;;5.82;67.75;97840.59;4917029;29;20494;-79
2022/12/27 08:47:42;;;;;;;3.00;1.40;;;;;;;5.87;68.35;97836.69;4917407;29;20052;-80
2022/12/27 08:50:10;;;;;;;4.50;1.98;;;;;;;5.90;67.37;97831.28;4916829;29;20428;-79
2022/12/27 08:52:37;;;;;;;5.43;1.73;;;;;;;5.96;68.69;97835.97;4917107;29;20058;-80
2022/12/27 08:55:06;;;;;;;3.47;1.10;;;;;;;6.05;67.82;97843.97;4917652;29;20058;-79
2022/12/27 08:57:35;;;;;;;2.38;1.15;;;;;;;6.11;70.05;97836.53;4916933;29;20489;-79
2022/12/27 09:00:05;;;;;;;2.30;1.45;;;;;;;6.17;69.58;97838.63;4916688;29;20055;-79
2022/12/27 09:02:33;;;;;;;3.67;1.50;;;;;;;6.22;67.33;97842.63;4916833;29;20495;-80
2022/12/27 09:05:00;;;;;;;2.28;1.52;;;;;;;6.21;65.89;97843.53;4916681;29;20054;-79
2022/12/27 09:07:28;;;;;;;2.88;1.75;;;;;;;6.23;65.21;97845.09;4916294;29;20088;-79
2022/12/27 09:09:55;;;;;;;2.40;1.73;;;;;;;6.26;66.03;97846.59;4916199;29;20052;-79
2022/12/27 09:12:23;;;;;;;4.25;1.75;;;;;;;6.31;67.00;97844.47;4916560;29;20429;-79
2022/12/27 09:14:52;;;;;;;2.72;1.50;;;;;;;6.36;67.42;97848.34;4916586;29;20052;-79
2022/12/27 09:17:19;;;;;;;3.17;1.20;;;;;;;6.42;67.89;97853.97;4917237;29;20138;-80
2022/12/27 09:19:47;;;;;;;2.38;1.05;;;;;;;6.48;68.06;97856.06;4916689;29;20052;-79
2022/12/27 09:22:15;;;;;;;3.70;1.58;;;;;;;6.52;67.42;97858.25;4916692;29;20056;-80
2022/12/27 09:24:42;;;;;;;1.88;0.85;;;;;;;6.56;66.70;97859.66;4916266;29;20498;-79
2022/12/27 09:27:10;;;;;;;1.70;0.70;;;;;;;6.63;67.60;97864.34;4916870;29;20048;-79
2022/12/27 09:29:37;;;;;;;2.85;0.80;;;;;;;6.68;67.16;97867.38;4919181;29;20056;-80
2022/12/27 09:32:14;;;;;;;2.42;0.90;;;;;;;6.72;67.40;97868.78;4920301;29;20075;-78
2022/12/27 09:34:41;;;;;;;4.80;0.80;;;;;;;6.75;66.44;97868.50;4919934;29;20048;-79
2022/12/27 09:37:09;;;;;;;2.67;1.25;;;;;;;6.79;66.98;97873.31;4919686;29;20521;-79
2022/12/27 09:39:36;;;;;;;2.92;1.58;;;;;;;6.82;65.13;97861.88;4919824;29;20857;-79
2022/12/27 09:42:11;;;;;;;1.30;0.50;;;;;;;6.86;65.99;97860.66;4919621;29;20490;-79
2022/12/27 09:45:03;;;;;;;4.53;1.05;;;;;;;6.93;66.20;97864.41;4919486;29;20052;-79
2022/12/27 09:47:40;;;;;;;1.17;0.70;;;;;;;6.97;64.43;97857.19;4920196;29;20056;-79
2022/12/27 09:50:13;;;;;;;5.95;1.42;;;;;;;6.99;63.70;97856.09;4930930;29;20063;-79
2022/12/27 09:52:47;;;;;;;1.98;0.80;;;;;;;7.03;63.97;97858.47;4940977;29;20056;-80
2022/12/27 09:55:19;;;;;;;2.63;1.10;;;;;;;7.07;64.12;97858.06;4939839;29;20039;-79
2022/12/27 09:57:47;;;;;;;3.50;1.02;;;;;;;7.11;63.70;97858.63;4924975;29;20060;-79
2022/12/27 10:00:19;;;;;;;2.92;1.10;;;;;;;7.15;64.32;97860.00;4922147;29;20526;-79
2022/12/27 10:03:05;;;;;;;2.25;0.75;;;;;;;7.19;63.09;97861.38;4921003;29;20059;-80
2022/12/27 10:05:36;;;;;;;2.08;0.80;;;;;;;7.22;63.11;97854.19;4922170;29;20134;-78
2022/12/27 10:08:19;;;;;;;2.58;0.80;;;;;;;7.25;59.95;97857.47;4920629;29;20060;-79
2022/12/27 10:10:53;;;;;;;4.55;1.20;;;;;;;7.30;62.36;97858.72;4920638;29;20059;-79
2022/12/27 10:13:35;;;;;;;2.67;0.95;;;;;;;7.35;61.07;97851.38;4920072;29;20044;-79
2022/12/27 10:16:13;;;;;;;2.78;1.05;;;;;;;7.41;63.54;97860.38;4919750;29;20331;-79
2022/12/27 10:18:54;;;;;;;1.33;0.90;;;;;;;7.47;62.48;97848.69;4919895;29;20111;-79
2022/12/27 10:21:24;;;;;;;3.67;0.68;;;;;;;7.52;63.02;97849.94;4919619;29;20056;-79
2022/12/27 10:23:57;;;;;;;1.75;0.75;;;;;;;7.56;62.37;97850.47;4919554;29;20055;-79
2022/12/27 10:26:24;;;;;;;4.10;0.68;;;;;;;7.58;61.64;97851.97;4921179;29;20056;-79
2022/12/27 10:28:59;;;;;;;3.15;1.23;;;;;;;7.61;61.09;97845.72;4920217;29;20051;-79
2022/12/27 10:31:27;;;;;;;3.78;0.60;;;;;;;7.67;61.47;97860.75;4921721;29;20418;-78
2022/12/27 10:33:57;;;;;;;1.20;0.60;;;;;;;7.73;61.20;97849.84;4940278;29;20052;-79
2022/12/27 10:36:28;;;;;;;3.83;0.70;;;;;;;7.79;59.69;97851.91;4939966;29;20143;-78
2022/12/27 10:38:55;;;;;;;4.90;0.90;;;;;;;7.83;61.43;97848.09;4924146;29;20051;-79
2022/12/27 10:41:33;;;;;;;3.30;0.90;;;;;;;7.89;60.35;97857.13;4918971;29;20091;-79
2022/12/27 10:44:00;;;;;;;1.08;0.52;;;;;;;7.95;59.95;97842.78;4919363;29;20048;-79
2022/12/27 10:46:30;;;;;;;5.97;0.68;;;;;;;8.00;59.31;97850.97;4919406;29;20062;-79
2022/12/27 10:49:04;;;;;;;2.13;0.70;;;;;;;8.06;59.91;97850.44;4919125;29;20052;-79
2022/12/27 10:51:51;;;;;;;1.23;0.50;;;;;;;8.11;58.17;97848.28;4918888;29;20506;-79
2022/12/27 10:54:23;;;;;;;5.40;0.68;;;;;;;8.16;57.59;97856.50;4919394;29;20074;-79
2022/12/27 10:56:51;;;;;;;1.95;0.73;;;;;;;8.25;59.02;97839.25;4919500;29;20084;-79
2022/12/27 10:59:20;;;;;;;2.50;1.10;;;;;;;8.35;60.51;97849.66;4919332;29;20089;-80
2022/12/27 11:02:06;;;;;;;3.20;0.90;;;;;;;8.43;59.07;97836.81;4919171;29;20431;-79
2022/12/27 11:04:35;;;;;;;2.85;0.70;;;;;;;8.50;57.87;97840.50;4919221;29;20044;-79
2022/12/27 11:07:13;;;;;;;2.33;0.80;;;;;;;8.57;56.21;97843.38;4919499;29;20082;-80
2022/12/27 11:09:42;;;;;;;1.23;0.63;;;;;;;8.64;58.91;97842.69;4918803;29;20506;-79
2022/12/27 11:12:19;;;;;;;3.40;1.85;;;;;;;8.74;57.77;97834.03;4918658;29;20062;-80
2022/12/27 11:14:55;;;;;;;2.35;0.80;;;;;;;8.81;55.67;97840.31;4918942;29;20442;-79
2022/12/27 11:17:26;;;;;;;1.55;0.75;;;;;;;8.86;55.38;97832.94;4918935;29;20049;-79
2022/12/27 11:19:57;;;;;;;1.33;0.50;;;;;;;8.94;57.06;97834.81;4918488;29;20048;-80
2022/12/27 11:22:25;;;;;;;2.42;0.75;;;;;;;9.03;57.16;97840.03;4917995;29;20059;-78
2022/12/27 11:24:59;;;;;;;2.15;0.90;;;;;;;9.13;57.16;97831.34;4918496;29;20059;-79
2022/12/27 11:27:28;;;;;;;1.80;0.75;;;;;;;9.21;55.28;97821.88;4918291;29;20058;-79
2022/12/27 11:29:59;;;;;;;4.07;0.55;;;;;;;9.30;55.55;97820.19;4917882;29;20063;-79
2022/12/27 11:32:26;;;;;;;1.23;0.70;;;;;;;9.41;55.77;97816.59;4918275;29;20055;-79
2022/12/27 11:34:56;;;;;;;1.77;0.98;;;;;;;9.49;56.22;97820.09;4918227;29;20443;-79
2022/12/27 11:37:27;;;;;;;1.95;0.63;;;;;;;9.62;56.27;97824.13;4918145;29;20063;-79
2022/12/27 11:40:00;;;;;;;3.10;1.00;;;;;;;9.73;55.70;97823.97;4919925;29;20063;-80
2022/12/27 11:42:37;;;;;;;4.03;0.70;;;;;;;9.85;56.12;97825.38;4919818;29;20083;-80
2022/12/27 11:45:11;;;;;;;2.13;0.70;;;;;;;9.99;53.84;97821.47;4919337;29;20434;-79
2022/12/27 11:47:43;;;;;;;2.47;0.63;;;;;;;10.07;54.52;97813.69;4918045;29;20422;-79
2022/12/27 11:50:22;;;;;;;;;;;;;;;10.21;55.08;97809.78;4918781;29;20056;-79
2022/12/27 11:53:05;;;;;;;1.23;0.50;;;;;;;10.31;52.71;97807.09;4916802;29;19923;-79
2022/12/27 11:55:52;;;;;;;2.10;0.57;;;;;;;10.37;52.60;97805.69;4916997;29;20052;-79
2022/12/27 11:59:00;;;;;;;1.13;0.55;;;;;;;10.46;53.62;97810.00;4917209;29;20062;-80
2022/12/27 12:01:53;;;;;;;1.50;0.60;;;;;;;10.54;53.58;97815.28;4917651;29;20052;-79
2022/12/27 12:04:43;;;;;;;1.83;0.45;;;;;;;10.62;52.32;97810.09;4917276;29;20139;-79
2022/12/27 12:07:25;;;;;;;2.47;0.60;;;;;;;10.70;52.04;97810.19;4917735;29;20052;-79
2022/12/27 12:10:17;;;;;;;2.90;0.50;;;;;;;10.75;51.77;97801.88;4917195;29;20490;-79
2022/12/27 12:13:09;;;;;;;1.43;0.60;;;;;;;10.83;52.02;97808.97;4917062;29;20062;-79
2022/12/27 12:15:54;;;;;;;2.45;0.73;;;;;;;10.90;53.05;97804.75;4906417;29;20060;-80
2022/12/27 12:18:34;;;;;;;2.90;0.95;;;;;;;10.97;52.01;97805.78;4916839;29;20052;-80
2022/12/27 12:21:28;;;;;;;2.25;0.70;;;;;;;11.05;52.25;97812.84;4916949;29;20486;-79
2022/12/27 12:24:26;;;;;;;2.80;0.55;;;;;;;11.09;49.62;97808.97;4921026;29;20035;-79
2022/12/27 12:27:13;;;;;;;2.65;0.60;;;;;;;11.08;49.51;97810.72;4935261;29;20051;-79
2022/12/27 12:30:08;;;;;;;1.88;0.60;;;;;;;11.05;53.67;97812.84;4934480;29;20055;-80
2022/12/27 12:32:50;;;;;;;2.25;0.70;;;;;;;11.02;52.83;97802.69;4916065;29;20048;-79
2022/12/27 12:35:48;;;;;;;1.23;0.60;;;;;;;10.99;51.55;97797.78;4917892;29;20067;-79
2022/12/27 12:38:21;;;;;;;1.65;0.50;;;;;;;10.90;51.66;97797.75;4917370;29;20395;-79
2022/12/27 12:41:30;;;;;;;1.08;0.55;;;;;;;10.82;51.94;97792.50;4919133;29;20052;-80
2022/12/27 12:44:25;;;;;;;2.15;0.77;;;;;;;10.74;54.05;97794.22;4866451;29;20513;-80
2022/12/27 12:47:00;;;;;;;0.75;0.75;;;;;;;10.62;53.56;97806.69;4918723;29;20068;-79
2022/12/27 12:49:44;;;;;;;4.40;0.90;;;;;;;10.54;52.54;97809.22;4916977;29;20048;-80
2022/12/27 12:52:35;;;;;;;2.03;0.82;;;;;;;10.43;51.26;97803.31;4916904;29;20063;-79
2022/12/27 12:55:25;;;;;;;2.15;0.70;;;;;;;10.35;51.75;97805.84;4917448;29;20066;-80
2022/12/27 12:58:04;;;;;;;3.22;1.33;;;;;;;10.27;50.81;97809.16;4916754;29;20063;-78
2022/12/27 13:00:50;;;;;;;1.55;1.02;;;;;;;10.21;49.87;97809.78;4917132;29;20052;-79
2022/12/27 13:03:40;;;;;;;1.55;0.68;;;;;;;10.18;51.54;97799.63;4919320;29;20521;-79
2022/12/27 13:06:19;;;;;;;3.65;1.40;;;;;;;10.17;50.98;97803.22;4923320;29;20125;-79
2022/12/27 13:08:57;;;;;;;3.22;0.93;;;;;;;10.14;52.33;97795.66;4923215;29;20055;-79
2022/12/27 13:11:36;;;;;;;2.35;0.90;;;;;;;10.13;53.32;97793.25;4924118;29;20450;-80
2022/12/27 13:14:23;;;;;;;2.38;0.75;;;;;;;10.11;53.58;97793.38;4924263;29;20067;-79
2022/12/27 13:16:59;;;;;;;3.33;1.40;;;;;;;10.06;51.83;97786.00;4923309;29;20136;-79
2022/12/27 13:19:49;;;;;;;2.10;1.33;;;;;;;10.05;54.72;97779.13;4922378;29;20146;-80
2022/12/27 13:22:28;;;;;;;3.40;0.95;;;;;;;10.00;52.26;97786.59;4922756;29;20056;-79
2022/12/27 13:25:10;;;;;;;3.38;1.05;;;;;;;9.93;50.37;97784.72;4923637;29;20054;-79
2022/12/27 13:27:47;;;;;;;9.23;2.90;;;;;;;9.88;54.78;97788.63;4922397;29;20502;-79
2022/12/27 13:30:20;;;;;;;3.13;1.55;;;;;;;9.88;53.60;97783.41;4922912;29;20052;-79
2022/12/27 13:33:00;;;;;;;;;;;;;;;9.90;53.87;97772.81;4923206;29;20454;-79
2022/12/27 13:35:41;;;;;;;3.10;0.80;;;;;;;9.83;53.36;97777.78;4922796;29;19923;-79
2022/12/27 13:38:24;;;;;;;1.48;1.02;;;;;;;9.80;53.01;97772.06;4922440;29;20048;-79
2022/12/27 13:41:05;;;;;;;2.30;0.98;;;;;;;9.75;52.32;97772.53;4933547;29;20066;-79
2022/12/27 13:43:57;;;;;;;5.90;1.15;;;;;;;9.73;51.23;97779.66;4943726;29;20052;-80
2022/12/27 13:46:40;;;;;;;2.00;0.90;;;;;;;9.72;52.98;97782.41;4936455;29;20071;-79
2022/12/27 13:49:30;;;;;;;3.78;1.30;;;;;;;9.68;51.62;97787.91;4923242;29;20052;-79
2022/12/27 13:52:11;;;;;;;2.05;0.95;;;;;;;9.68;53.53;97789.69;4922766;29;20056;-79
2022/12/27 13:55:00;;;;;;;2.53;1.20;;;;;;;9.70;53.61;97779.94;4923604;29;20052;-79
2022/12/27 13:57:53;;;;;;;6.22;1.70;;;;;;;9.74;55.86;97775.28;4922886;29;20054;-79
2022/12/27 14:00:22;;;;;;;5.07;2.00;;;;;;;9.75;54.93;97777.72;4923195;29;20055;-79
2022/12/27 14:03:18;;;;;;;2.45;1.20;;;;;;;9.77;57.60;97780.97;4923374;29;20060;-79
2022/12/27 14:16:48;;;;;;;2.03;1.20;;;;;;;9.65;52.58;97776.97;5270987;23;20063;-78
2022/12/27 14:19:38;;;;;;;3.80;1.20;;;;;;;9.64;52.72;97775.31;4938237;29;20062;-78
2022/12/27 14:22:28;;;;;;;3.55;1.35;;;;;;;9.63;54.12;97773.69;4939029;29;20047;-77
2022/12/27 14:25:28;;;;;;;3.10;1.10;;;;;;;9.61;54.74;97776.44;4937581;29;20055;-78
2022/12/27 14:28:36;;;;;;;2.42;0.90;;;;;;;9.60;54.64;97779.19;4916705;29;20048;-77
2022/12/27 14:31:39;;;;;;;1.52;0.95;;;;;;;9.56;55.57;97783.06;4919719;29;20151;-78
2022/12/27 14:34:22;;;;;;;;;;;;;;;9.58;55.81;97786.34;4880951;29;20055;-78
2022/12/27 14:37:10;;;;;;;3.50;0.90;;;;;;;9.52;56.50;97789.53;4942411;29;19911;-77
2022/12/27 14:40:05;;;;;;;4.03;1.35;;;;;;;9.49;56.76;97791.47;4941840;29;20135;-80
2022/12/27 14:43:08;;;;;;;2.60;1.27;;;;;;;9.45;57.10;97786.69;4920009;29;20578;-80
2022/12/27 14:46:04;;;;;;;2.88;1.30;;;;;;;9.41;56.23;97788.75;4919487;29;20055;-80
2022/12/27 14:49:02;;;;;;;5.55;1.90;;;;;;;9.38;57.54;97780.41;4919760;29;20422;-80